sensor_id;sensor_type;location;lat;lon;timestamp;pressure;altitude;pressure_sealevel;temperature;humidity
20696;BME280;10507;52.754;13.040;2022-08-05T00:00:12;100543.38;;;25.87;75.30
20696;BME280;10507;52.754;13.040;2022-08-05T00:02:41;100536.56;;;25.75;75.65
20696;BME280;10507;52.754;13.040;2022-08-05T00:05:18;100530.03;;;25.76;75.05
20696;BME280;10507;52.754;13.040;2022-08-05T00:08:06;100542.34;;;25.80;75.34
20696;BME280;10507;52.754;13.040;2022-08-05T00:10:56;100565.72;;;25.83;75.69
20696;BME280;10507;52.754;13.040;2022-08-05T00:13:26;100541.47;;;25.80;75.55
20696;BME280;10507;52.754;13.040;2022-08-05T00:16:06;100539.78;;;25.79;75.29
20696;BME280;10507;52.754;13.040;2022-08-05T00:18:41;100519.41;;;25.50;75.75
20696;BME280;10507;52.754;13.040;2022-08-05T00:21:10;100546.75;;;25.50;76.17
20696;BME280;10507;52.754;13.040;2022-08-05T00:23:41;100612.31;;;25.58;75.99
20696;BME280;10507;52.754;13.040;2022-08-05T00:26:30;100557.94;;;25.16;76.73
20696;BME280;10507;52.754;13.040;2022-08-05T00:28:58;100536.09;;;24.99;77.30
20696;BME280;10507;52.754;13.040;2022-08-05T00:31:27;100528.13;;;24.73;78.42
20696;BME280;10507;52.754;13.040;2022-08-05T00:34:15;100546.16;;;24.41;79.32
20696;BME280;10507;52.754;13.040;2022-08-05T00:37:02;100562.50;;;24.17;80.79
20696;BME280;10507;52.754;13.040;2022-08-05T00:39:39;100593.50;;;24.07;81.20
20696;BME280;10507;52.754;13.040;2022-08-05T00:42:32;100608.50;;;24.03;81.44
20696;BME280;10507;52.754;13.040;2022-08-05T00:45:00;100611.00;;;23.89;82.07
20696;BME280;10507;52.754;13.040;2022-08-05T00:47:28;100614.94;;;23.86;82.43
20696;BME280;10507;52.754;13.040;2022-08-05T00:50:16;100627.19;;;23.82;82.70
20696;BME280;10507;52.754;13.040;2022-08-05T00:52:46;100660.19;;;23.79;83.17
20696;BME280;10507;52.754;13.040;2022-08-05T00:55:14;100670.59;;;23.75;83.33
20696;BME280;10507;52.754;13.040;2022-08-05T00:57:45;100671.06;;;23.71;83.73
20696;BME280;10507;52.754;13.040;2022-08-05T01:00:25;100675.81;;;23.69;84.05
20696;BME280;10507;52.754;13.040;2022-08-05T01:02:53;100695.03;;;23.67;84.34
20696;BME280;10507;52.754;13.040;2022-08-05T01:05:22;100712.72;;;23.63;84.75
20696;BME280;10507;52.754;13.040;2022-08-05T01:07:53;100721.78;;;23.63;84.62
20696;BME280;10507;52.754;13.040;2022-08-05T01:10:43;100721.25;;;23.60;85.20
20696;BME280;10507;52.754;13.040;2022-08-05T01:13:22;100739.09;;;23.54;85.85
20696;BME280;10507;52.754;13.040;2022-08-05T01:16:13;100759.19;;;23.53;86.06
20696;BME280;10507;52.754;13.040;2022-08-05T01:18:57;100752.56;;;23.38;86.92
20696;BME280;10507;52.754;13.040;2022-08-05T01:21:49;100739.75;;;23.30;87.35
20696;BME280;10507;52.754;13.040;2022-08-05T01:24:29;100744.59;;;23.18;88.21
20696;BME280;10507;52.754;13.040;2022-08-05T01:27:06;100740.00;;;23.19;87.95
20696;BME280;10507;52.754;13.040;2022-08-05T01:29:53;100742.41;;;23.22;87.59
20696;BME280;10507;52.754;13.040;2022-08-05T01:32:25;100740.22;;;23.26;87.49
20696;BME280;10507;52.754;13.040;2022-08-05T01:34:58;100731.03;;;23.27;87.23
20696;BME280;10507;52.754;13.040;2022-08-05T01:37:34;100729.34;;;23.26;87.38
20696;BME280;10507;52.754;13.040;2022-08-05T01:40:11;100725.59;;;23.27;86.97
20696;BME280;10507;52.754;13.040;2022-08-05T01:42:45;100729.84;;;23.29;86.82
20696;BME280;10507;52.754;13.040;2022-08-05T01:45:15;100719.50;;;23.33;86.60
20696;BME280;10507;52.754;13.040;2022-08-05T01:47:47;100717.97;;;23.30;86.40
20696;BME280;10507;52.754;13.040;2022-08-05T01:50:24;100724.97;;;23.33;86.30
20696;BME280;10507;52.754;13.040;2022-08-05T01:52:58;100723.94;;;23.34;86.21
20696;BME280;10507;52.754;13.040;2022-08-05T01:55:28;100735.22;;;23.39;85.81
20696;BME280;10507;52.754;13.040;2022-08-05T01:58:03;100720.91;;;23.37;85.89
20696;BME280;10507;52.754;13.040;2022-08-05T02:00:44;100736.72;;;23.33;85.98
20696;BME280;10507;52.754;13.040;2022-08-05T02:03:19;100742.63;;;23.29;86.30
20696;BME280;10507;52.754;13.040;2022-08-05T02:05:59;100729.72;;;23.31;86.03
20696;BME280;10507;52.754;13.040;2022-08-05T02:08:47;100728.50;;;23.25;86.30
20696;BME280;10507;52.754;13.040;2022-08-05T02:11:25;100722.00;;;23.26;86.17
20696;BME280;10507;52.754;13.040;2022-08-05T02:14:02;100718.03;;;23.20;86.36
20696;BME280;10507;52.754;13.040;2022-08-05T02:16:40;100717.50;;;23.17;86.61
20696;BME280;10507;52.754;13.040;2022-08-05T02:19:14;100741.19;;;23.16;86.49
20696;BME280;10507;52.754;13.040;2022-08-05T02:22:15;100747.25;;;23.10;87.04
20696;BME280;10507;52.754;13.040;2022-08-05T02:24:59;100741.47;;;23.13;86.69
20696;BME280;10507;52.754;13.040;2022-08-05T02:27:29;100734.00;;;23.15;86.46
20696;BME280;10507;52.754;13.040;2022-08-05T02:30:20;100722.34;;;23.05;86.81
20696;BME280;10507;52.754;13.040;2022-08-05T02:32:56;100736.44;;;23.00;87.02
20696;BME280;10507;52.754;13.040;2022-08-05T02:35:27;100736.97;;;23.04;86.81
20696;BME280;10507;52.754;13.040;2022-08-05T02:38:04;100737.50;;;23.08;86.60
20696;BME280;10507;52.754;13.040;2022-08-05T02:40:35;100737.28;;;23.01;86.79
20696;BME280;10507;52.754;13.040;2022-08-05T02:43:05;100747.06;;;22.94;87.30
20696;BME280;10507;52.754;13.040;2022-08-05T02:45:35;100744.63;;;22.91;87.81
20696;BME280;10507;52.754;13.040;2022-08-05T02:48:21;100753.13;;;22.88;87.89
20696;BME280;10507;52.754;13.040;2022-08-05T02:50:56;100748.19;;;22.91;87.32
20696;BME280;10507;52.754;13.040;2022-08-05T02:53:27;100728.66;;;22.96;87.07
20696;BME280;10507;52.754;13.040;2022-08-05T02:56:05;100734.44;;;22.93;87.19
20696;BME280;10507;52.754;13.040;2022-08-05T02:58:35;100745.47;;;22.91;87.39
20696;BME280;10507;52.754;13.040;2022-08-05T03:01:12;100750.44;;;22.96;87.11
20696;BME280;10507;52.754;13.040;2022-08-05T03:03:48;100740.72;;;23.03;86.45
20696;BME280;10507;52.754;13.040;2022-08-05T03:06:34;100740.00;;;23.01;87.20
20696;BME280;10507;52.754;13.040;2022-08-05T03:09:25;100739.28;;;22.99;87.13
20696;BME280;10507;52.754;13.040;2022-08-05T03:12:09;100739.28;;;22.99;87.09
20696;BME280;10507;52.754;13.040;2022-08-05T03:14:37;100746.44;;;23.00;86.97
20696;BME280;10507;52.754;13.040;2022-08-05T03:17:13;100761.84;;;23.09;86.46
20696;BME280;10507;52.754;13.040;2022-08-05T03:19:42;100744.38;;;23.12;86.13
20696;BME280;10507;52.754;13.040;2022-08-05T03:22:11;100748.66;;;23.14;86.81
20696;BME280;10507;52.754;13.040;2022-08-05T03:24:45;100738.44;;;23.16;86.20
20696;BME280;10507;52.754;13.040;2022-08-05T03:27:17;100745.44;;;23.19;86.08
20696;BME280;10507;52.754;13.040;2022-08-05T03:29:46;100733.69;;;23.18;85.87
20696;BME280;10507;52.754;13.040;2022-08-05T03:32:34;100728.88;;;23.12;86.29
20696;BME280;10507;52.754;13.040;2022-08-05T03:35:05;100725.59;;;23.09;86.34
20696;BME280;10507;52.754;13.040;2022-08-05T03:37:35;100715.50;;;23.01;86.63
20696;BME280;10507;52.754;13.040;2022-08-05T03:40:13;100728.00;;;22.94;87.21
20696;BME280;10507;52.754;13.040;2022-08-05T03:42:58;100731.00;;;22.91;87.20
20696;BME280;10507;52.754;13.040;2022-08-05T03:45:46;100750.69;;;22.84;87.07
20696;BME280;10507;52.754;13.040;2022-08-05T03:48:24;100774.56;;;22.91;86.86
20696;BME280;10507;52.754;13.040;2022-08-05T03:50:57;100771.16;;;22.89;87.02
20696;BME280;10507;52.754;13.040;2022-08-05T03:53:51;100781.66;;;22.83;87.20
20696;BME280;10507;52.754;13.040;2022-08-05T03:56:43;100784.06;;;22.87;87.40
20696;BME280;10507;52.754;13.040;2022-08-05T03:59:15;100801.28;;;22.87;87.64
20696;BME280;10507;52.754;13.040;2022-08-05T04:01:48;100818.31;;;22.89;87.83
20696;BME280;10507;52.754;13.040;2022-08-05T04:04:19;100816.84;;;22.95;87.51
20696;BME280;10507;52.754;13.040;2022-08-05T04:06:53;100812.38;;;23.03;86.91
20696;BME280;10507;52.754;13.040;2022-08-05T04:09:22;100812.38;;;23.03;87.60
20696;BME280;10507;52.754;13.040;2022-08-05T04:11:52;100815.78;;;23.06;87.54
20696;BME280;10507;52.754;13.040;2022-08-05T04:14:24;100807.25;;;23.00;87.98
20696;BME280;10507;52.754;13.040;2022-08-05T04:16:57;100813.78;;;22.98;88.27
20696;BME280;10507;52.754;13.040;2022-08-05T04:19:26;100821.25;;;22.96;88.89
20696;BME280;10507;52.754;13.040;2022-08-05T04:21:56;100809.69;;;22.94;88.61
20696;BME280;10507;52.754;13.040;2022-08-05T04:24:37;100794.03;;;22.96;87.72
20696;BME280;10507;52.754;13.040;2022-08-05T04:27:10;100836.41;;;23.08;88.29
20696;BME280;10507;52.754;13.040;2022-08-05T04:29:39;100842.09;;;23.15;87.68
20696;BME280;10507;52.754;13.040;2022-08-05T04:32:07;100847.19;;;23.28;87.08
20696;BME280;10507;52.754;13.040;2022-08-05T04:34:35;100850.84;;;23.36;87.13
20696;BME280;10507;52.754;13.040;2022-08-05T04:37:10;100851.09;;;23.43;87.06
20696;BME280;10507;52.754;13.040;2022-08-05T04:39:38;100815.88;;;23.32;87.59
20696;BME280;10507;52.754;13.040;2022-08-05T04:42:06;100841.50;;;23.39;87.12
20696;BME280;10507;52.754;13.040;2022-08-05T04:44:35;100859.47;;;23.50;87.21
20696;BME280;10507;52.754;13.040;2022-08-05T04:47:03;100876.84;;;23.66;87.03
20696;BME280;10507;52.754;13.040;2022-08-05T04:49:36;100867.34;;;23.71;86.85
20696;BME280;10507;52.754;13.040;2022-08-05T04:52:26;100838.31;;;23.61;87.16
20696;BME280;10507;52.754;13.040;2022-08-05T04:54:58;100867.28;;;23.62;87.23
20696;BME280;10507;52.754;13.040;2022-08-05T04:57:42;100894.63;;;23.71;87.09
20696;BME280;10507;52.754;13.040;2022-08-05T05:00:17;100902.78;;;23.71;87.71
20696;BME280;10507;52.754;13.040;2022-08-05T05:02:49;100917.44;;;23.70;88.13
20696;BME280;10507;52.754;13.040;2022-08-05T05:05:17;100931.06;;;23.70;88.21
20696;BME280;10507;52.754;13.040;2022-08-05T05:07:58;100924.84;;;23.59;88.83
20696;BME280;10507;52.754;13.040;2022-08-05T05:10:28;100934.66;;;23.52;89.04
20696;BME280;10507;52.754;13.040;2022-08-05T05:12:59;100963.22;;;23.48;89.16
20696;BME280;10507;52.754;13.040;2022-08-05T05:15:29;100977.00;;;23.47;89.51
20696;BME280;10507;52.754;13.040;2022-08-05T05:18:17;100971.69;;;23.45;89.88
20696;BME280;10507;52.754;13.040;2022-08-05T05:20:59;100973.03;;;23.41;90.31
20696;BME280;10507;52.754;13.040;2022-08-05T05:23:30;101009.16;;;23.43;90.41
20696;BME280;10507;52.754;13.040;2022-08-05T05:26:17;101015.84;;;23.49;90.47
20696;BME280;10507;52.754;13.040;2022-08-05T05:28:54;100980.44;;;23.49;90.49
20696;BME280;10507;52.754;13.040;2022-08-05T05:31:22;100961.81;;;23.44;90.61
20696;BME280;10507;52.754;13.040;2022-08-05T05:33:56;101021.50;;;23.65;90.28
20696;BME280;10507;52.754;13.040;2022-08-05T05:36:28;101053.75;;;23.70;90.21
20696;BME280;10507;52.754;13.040;2022-08-05T05:38:58;101057.00;;;23.55;90.55
20696;BME280;10507;52.754;13.040;2022-08-05T05:41:29;101084.56;;;23.52;91.09
20696;BME280;10507;52.754;13.040;2022-08-05T05:44:07;101104.38;;;23.44;92.07
20696;BME280;10507;52.754;13.040;2022-08-05T05:46:55;101102.94;;;23.40;92.02
20696;BME280;10507;52.754;13.040;2022-08-05T05:49:23;101127.34;;;23.42;92.42
20696;BME280;10507;52.754;13.040;2022-08-05T05:51:51;101144.59;;;23.33;93.60
20696;BME280;10507;52.754;13.040;2022-08-05T05:54:21;101161.66;;;23.35;93.59
20696;BME280;10507;52.754;13.040;2022-08-05T05:57:09;101172.97;;;23.40;93.87
20696;BME280;10507;52.754;13.040;2022-08-05T05:59:39;101173.81;;;23.50;93.62
20696;BME280;10507;52.754;13.040;2022-08-05T06:02:08;101192.56;;;23.53;93.78
20696;BME280;10507;52.754;13.040;2022-08-05T06:04:36;101169.47;;;23.57;93.37
20696;BME280;10507;52.754;13.040;2022-08-05T06:07:04;101233.00;;;23.77;93.58
20696;BME280;10507;52.754;13.040;2022-08-05T06:09:33;101220.63;;;23.93;92.89
20696;BME280;10507;52.754;13.040;2022-08-05T06:12:20;101192.19;;;23.95;92.58
20696;BME280;10507;52.754;13.040;2022-08-05T06:14:52;101156.22;;;23.72;93.25
20696;BME280;10507;52.754;13.040;2022-08-05T06:17:22;101193.28;;;23.75;93.57
20696;BME280;10507;52.754;13.040;2022-08-05T06:19:56;101138.06;;;23.53;94.04
20696;BME280;10507;52.754;13.040;2022-08-05T06:22:26;101200.63;;;23.45;95.43
20696;BME280;10507;52.754;13.040;2022-08-05T06:24:56;101165.81;;;23.29;96.39
20696;BME280;10507;52.754;13.040;2022-08-05T06:27:24;101122.84;;;22.84;98.21
20696;BME280;10507;52.754;13.040;2022-08-05T06:30:12;101146.63;;;22.82;98.80
20696;BME280;10507;52.754;13.040;2022-08-05T06:32:46;101181.16;;;22.91;98.96
20696;BME280;10507;52.754;13.040;2022-08-05T06:35:16;101171.88;;;22.74;100.00
20696;BME280;10507;52.754;13.040;2022-08-05T06:38:04;101183.03;;;22.52;100.00
20696;BME280;10507;52.754;13.040;2022-08-05T06:40:38;101170.97;;;22.35;100.00
20696;BME280;10507;52.754;13.040;2022-08-05T06:43:10;101215.66;;;22.42;100.00
20696;BME280;10507;52.754;13.040;2022-08-05T06:45:57;101202.88;;;22.23;100.00
20696;BME280;10507;52.754;13.040;2022-08-05T06:48:32;101209.94;;;22.35;100.00
20696;BME280;10507;52.754;13.040;2022-08-05T06:51:20;101172.03;;;22.13;100.00
20696;BME280;10507;52.754;13.040;2022-08-05T06:53:56;101188.09;;;22.16;100.00
20696;BME280;10507;52.754;13.040;2022-08-05T06:56:25;101212.75;;;22.24;100.00
20696;BME280;10507;52.754;13.040;2022-08-05T06:58:54;101203.72;;;22.24;100.00
20696;BME280;10507;52.754;13.040;2022-08-05T07:01:23;101213.03;;;22.31;100.00
20696;BME280;10507;52.754;13.040;2022-08-05T07:03:57;101183.06;;;22.21;100.00
20696;BME280;10507;52.754;13.040;2022-08-05T07:06:26;101203.31;;;22.28;100.00
20696;BME280;10507;52.754;13.040;2022-08-05T07:08:54;101212.75;;;22.24;100.00
20696;BME280;10507;52.754;13.040;2022-08-05T07:11:26;101242.88;;;22.42;100.00
20696;BME280;10507;52.754;13.040;2022-08-05T07:13:56;101251.22;;;22.60;100.00
20696;BME280;10507;52.754;13.040;2022-08-05T07:16:56;101221.72;;;22.65;100.00
20696;BME280;10507;52.754;13.040;2022-08-05T07:19:46;101211.97;;;22.53;100.00
20696;BME280;10507;52.754;13.040;2022-08-05T07:22:34;101279.88;;;22.64;100.00
20696;BME280;10507;52.754;13.040;2022-08-05T07:25:04;101300.38;;;22.68;100.00
20696;BME280;10507;52.754;13.040;2022-08-05T07:27:54;101342.06;;;22.69;100.00
20696;BME280;10507;52.754;13.040;2022-08-05T07:30:34;101365.19;;;22.44;100.00
20696;BME280;10507;52.754;13.040;2022-08-05T07:33:07;101405.56;;;22.38;100.00
20696;BME280;10507;52.754;13.040;2022-08-05T07:35:42;101344.59;;;22.20;100.00
20696;BME280;10507;52.754;13.040;2022-08-05T07:38:30;101332.56;;;22.01;100.00
20696;BME280;10507;52.754;13.040;2022-08-05T07:41:11;101330.81;;;21.91;100.00
20696;BME280;10507;52.754;13.040;2022-08-05T07:44:01;101364.44;;;21.90;100.00
20696;BME280;10507;52.754;13.040;2022-08-05T07:46:30;101349.13;;;21.89;100.00
20696;BME280;10507;52.754;13.040;2022-08-05T07:49:00;101380.00;;;21.88;100.00
20696;BME280;10507;52.754;13.040;2022-08-05T07:51:34;101405.72;;;21.84;100.00
20696;BME280;10507;52.754;13.040;2022-08-05T07:54:13;101389.97;;;21.77;100.00
20696;BME280;10507;52.754;13.040;2022-08-05T07:56:44;101463.66;;;21.95;100.00
20696;BME280;10507;52.754;13.040;2022-08-05T07:59:33;101466.31;;;22.07;100.00
20696;BME280;10507;52.754;13.040;2022-08-05T08:02:07;101449.22;;;22.16;100.00
20696;BME280;10507;52.754;13.040;2022-08-05T08:04:42;101439.88;;;22.30;100.00
20696;BME280;10507;52.754;13.040;2022-08-05T08:07:11;101474.84;;;22.34;100.00
20696;BME280;10507;52.754;13.040;2022-08-05T08:09:39;101511.69;;;22.38;100.00
20696;BME280;10507;52.754;13.040;2022-08-05T08:12:07;101474.03;;;22.44;100.00
20696;BME280;10507;52.754;13.040;2022-08-05T08:14:56;101265.31;;;22.94;100.00
20696;BME280;10507;52.754;13.040;2022-08-05T08:17:28;101126.59;;;22.83;100.00
20696;BME280;10507;52.754;13.040;2022-08-05T08:19:56;101187.09;;;23.63;100.00
20696;BME280;10507;52.754;13.040;2022-08-05T08:22:50;101036.25;;;23.72;100.00
20696;BME280;10507;52.754;13.040;2022-08-05T08:25:22;101019.81;;;23.36;100.00
20696;BME280;10507;52.754;13.040;2022-08-05T08:27:52;101076.28;;;23.44;100.00
20696;BME280;10507;52.754;13.040;2022-08-05T08:30:23;101062.47;;;23.83;100.00
20696;BME280;10507;52.754;13.040;2022-08-05T08:33:06;101007.22;;;23.81;100.00
20696;BME280;10507;52.754;13.040;2022-08-05T08:35:40;101095.66;;;23.69;100.00
20696;BME280;10507;52.754;13.040;2022-08-05T08:38:19;101027.22;;;23.44;100.00
20696;BME280;10507;52.754;13.040;2022-08-05T08:41:04;101094.94;;;23.39;100.00
20696;BME280;10507;52.754;13.040;2022-08-05T08:43:35;101125.91;;;23.38;100.00
20696;BME280;10507;52.754;13.040;2022-08-05T17:29:33;100777.56;;;20.28;90.87
20696;BME280;10507;52.754;13.040;2022-08-05T17:32:06;100728.28;;;20.13;90.29
20696;BME280;10507;52.754;13.040;2022-08-05T17:34:42;100737.81;;;20.07;90.16
20696;BME280;10507;52.754;13.040;2022-08-05T17:37:13;100684.53;;;19.87;89.28
20696;BME280;10507;52.754;13.040;2022-08-05T17:40:01;100697.94;;;19.88;89.47
20696;BME280;10507;52.754;13.040;2022-08-05T17:42:29;100667.63;;;19.52;91.10
20696;BME280;10507;52.754;13.040;2022-08-05T17:45:00;100722.34;;;19.46;92.21
20696;BME280;10507;52.754;13.040;2022-08-05T17:47:46;100671.69;;;19.16;91.49
20696;BME280;10507;52.754;13.040;2022-08-05T17:50:20;100742.00;;;19.27;91.52
20696;BME280;10507;52.754;13.040;2022-08-05T17:52:54;100649.56;;;19.11;89.47
20696;BME280;10507;52.754;13.040;2022-08-05T17:55:23;100644.03;;;19.13;89.35
20696;BME280;10507;52.754;13.040;2022-08-05T17:58:08;100650.09;;;19.05;89.20
20696;BME280;10507;52.754;13.040;2022-08-05T18:00:41;100675.50;;;19.14;89.19
20696;BME280;10507;52.754;13.040;2022-08-05T18:03:13;100652.41;;;19.09;87.84
20696;BME280;10507;52.754;13.040;2022-08-05T18:06:01;100653.19;;;19.21;86.58
20696;BME280;10507;52.754;13.040;2022-08-05T18:08:38;100586.25;;;19.23;84.57
20696;BME280;10507;52.754;13.040;2022-08-05T18:11:11;100527.59;;;19.03;83.71
20696;BME280;10507;52.754;13.040;2022-08-05T18:13:55;100531.34;;;19.11;83.18
20696;BME280;10507;52.754;13.040;2022-08-05T18:16:26;100495.44;;;19.09;82.13
20696;BME280;10507;52.754;13.040;2022-08-05T18:18:54;100489.78;;;19.13;81.62
20696;BME280;10507;52.754;13.040;2022-08-05T18:21:22;100509.16;;;19.18;81.72
20696;BME280;10507;52.754;13.040;2022-08-05T18:23:53;100510.69;;;19.10;82.13
20696;BME280;10507;52.754;13.040;2022-08-05T18:26:23;100503.69;;;19.08;81.83
20696;BME280;10507;52.754;13.040;2022-08-05T18:28:57;100471.47;;;18.95;82.05
20696;BME280;10507;52.754;13.040;2022-08-05T18:31:26;100448.34;;;18.81;81.84
20696;BME280;10507;52.754;13.040;2022-08-05T18:34:01;100479.91;;;18.81;82.07
20696;BME280;10507;52.754;13.040;2022-08-05T18:36:31;100467.09;;;18.83;82.01
20696;BME280;10507;52.754;13.040;2022-08-05T18:39:00;100440.84;;;18.74;81.14
20696;BME280;10507;52.754;13.040;2022-08-05T18:41:32;100405.00;;;18.51;81.55
20696;BME280;10507;52.754;13.040;2022-08-05T18:44:20;100460.19;;;18.48;82.35
20696;BME280;10507;52.754;13.040;2022-08-05T18:47:02;100496.81;;;18.52;82.09
20696;BME280;10507;52.754;13.040;2022-08-05T18:49:30;100512.75;;;18.55;82.46
20696;BME280;10507;52.754;13.040;2022-08-05T18:52:23;100480.09;;;18.47;82.50
20696;BME280;10507;52.754;13.040;2022-08-05T18:55:04;100526.56;;;18.52;82.82
20696;BME280;10507;52.754;13.040;2022-08-05T18:57:36;100571.41;;;18.55;83.49
20696;BME280;10507;52.754;13.040;2022-08-05T19:00:09;100578.91;;;18.51;84.46
20696;BME280;10507;52.754;13.040;2022-08-05T19:02:47;100576.47;;;18.48;83.39
20696;BME280;10507;52.754;13.040;2022-08-05T19:05:16;100604.97;;;18.52;84.29
20696;BME280;10507;52.754;13.040;2022-08-05T19:08:06;100593.66;;;18.47;84.02
20696;BME280;10507;52.754;13.040;2022-08-05T19:10:39;100584.34;;;18.40;83.95
20696;BME280;10507;52.754;13.040;2022-08-05T19:13:07;100564.00;;;18.24;84.90
20696;BME280;10507;52.754;13.040;2022-08-05T19:15:41;100593.00;;;18.22;85.00
20696;BME280;10507;52.754;13.040;2022-08-05T19:18:30;100660.34;;;18.25;86.43
20696;BME280;10507;52.754;13.040;2022-08-05T19:20:58;100700.63;;;18.28;86.89
20696;BME280;10507;52.754;13.040;2022-08-05T19:23:26;100686.00;;;18.20;87.27
20696;BME280;10507;52.754;13.040;2022-08-05T19:26:17;100709.00;;;18.14;87.10
20696;BME280;10507;52.754;13.040;2022-08-05T19:28:44;100685.81;;;18.00;87.28
20696;BME280;10507;52.754;13.040;2022-08-05T19:31:13;100723.00;;;17.97;88.26
20696;BME280;10507;52.754;13.040;2022-08-05T19:33:46;100744.88;;;17.94;88.81
20696;BME280;10507;52.754;13.040;2022-08-05T19:36:23;100786.72;;;17.88;89.65
20696;BME280;10507;52.754;13.040;2022-08-05T19:38:52;100815.97;;;17.94;89.42
20696;BME280;10507;52.754;13.040;2022-08-05T19:41:24;100854.63;;;17.95;90.46
20696;BME280;10507;52.754;13.040;2022-08-05T19:44:11;100834.13;;;17.92;89.70
20696;BME280;10507;52.754;13.040;2022-08-05T19:46:39;100837.19;;;17.88;89.83
20696;BME280;10507;52.754;13.040;2022-08-05T19:49:10;100839.41;;;17.82;90.37
20696;BME280;10507;52.754;13.040;2022-08-05T19:51:44;100842.53;;;17.76;90.71
20696;BME280;10507;52.754;13.040;2022-08-05T19:54:32;100885.56;;;17.66;92.00
20696;BME280;10507;52.754;13.040;2022-08-05T19:57:01;100900.41;;;17.61;91.80
20696;BME280;10507;52.754;13.040;2022-08-05T19:59:36;100934.06;;;17.68;92.57
20696;BME280;10507;52.754;13.040;2022-08-05T20:02:24;100912.41;;;17.57;91.83
20696;BME280;10507;52.754;13.040;2022-08-05T20:04:54;100918.56;;;17.59;91.93
20696;BME280;10507;52.754;13.040;2022-08-05T20:07:24;100947.81;;;17.65;92.57
20696;BME280;10507;52.754;13.040;2022-08-05T20:10:12;100975.22;;;17.72;92.61
20696;BME280;10507;52.754;13.040;2022-08-05T20:12:40;100977.44;;;17.78;92.62
20696;BME280;10507;52.754;13.040;2022-08-05T20:15:14;100983.66;;;17.67;92.79
20696;BME280;10507;52.754;13.040;2022-08-05T20:18:02;100989.16;;;17.65;92.98
20696;BME280;10507;52.754;13.040;2022-08-05T20:20:51;101025.66;;;17.71;94.05
20696;BME280;10507;52.754;13.040;2022-08-05T20:23:21;101008.81;;;17.67;93.31
20696;BME280;10507;52.754;13.040;2022-08-05T20:26:06;101053.31;;;17.75;93.51
20696;BME280;10507;52.754;13.040;2022-08-05T20:28:42;101054.50;;;17.71;94.43
20696;BME280;10507;52.754;13.040;2022-08-05T20:31:10;101110.66;;;17.78;95.02
20696;BME280;10507;52.754;13.040;2022-08-05T20:33:37;101079.56;;;17.73;94.13
20696;BME280;10507;52.754;13.040;2022-08-05T20:36:09;101106.03;;;17.67;95.29
20696;BME280;10507;52.754;13.040;2022-08-05T20:38:40;101139.06;;;17.71;95.49
20696;BME280;10507;52.754;13.040;2022-08-05T20:41:23;101128.75;;;17.65;95.42
20696;BME280;10507;52.754;13.040;2022-08-05T20:44:10;101349.06;;;19.20;97.13
20696;BME280;10507;52.754;13.040;2022-08-05T20:46:56;101399.81;;;21.03;92.32
20696;BME280;10507;52.754;13.040;2022-08-05T20:49:25;101172.69;;;21.13;87.44
20696;BME280;10507;52.754;13.040;2022-08-05T20:51:55;101240.88;;;22.44;84.14
20696;BME280;10507;52.754;13.040;2022-08-05T20:54:24;101023.03;;;22.16;81.96
20696;BME280;10507;52.754;13.040;2022-08-05T20:57:12;101014.28;;;22.03;82.52
20696;BME280;10507;52.754;13.040;2022-08-05T20:59:50;100890.53;;;21.79;80.62
20696;BME280;10507;52.754;13.040;2022-08-05T21:02:38;100974.78;;;22.09;80.24
20696;BME280;10507;52.754;13.040;2022-08-05T21:05:17;100966.19;;;22.33;79.00
20696;BME280;10507;52.754;13.040;2022-08-05T21:07:48;101001.00;;;22.39;78.92
20696;BME280;10507;52.754;13.040;2022-08-05T21:10:18;101048.06;;;22.69;78.67
20696;BME280;10507;52.754;13.040;2022-08-05T21:12:47;101021.81;;;22.87;78.13
20696;BME280;10507;52.754;13.040;2022-08-05T21:15:23;100980.38;;;23.03;76.87
20696;BME280;10507;52.754;13.040;2022-08-05T21:17:59;100858.09;;;22.72;76.87
20696;BME280;10507;52.754;13.040;2022-08-05T21:20:27;100918.81;;;22.73;77.59
20696;BME280;10507;52.754;13.040;2022-08-05T21:23:01;100964.84;;;23.13;77.09
20696;BME280;10507;52.754;13.040;2022-08-05T21:25:30;100903.59;;;23.17;76.22
20696;BME280;10507;52.754;13.040;2022-08-05T21:28:00;100904.75;;;23.15;76.80
20696;BME280;10507;52.754;13.040;2022-08-05T21:30:28;100860.53;;;23.03;77.13
20696;BME280;10507;52.754;13.040;2022-08-05T21:32:56;100860.41;;;22.67;78.24
20696;BME280;10507;52.754;13.040;2022-08-05T21:35:27;100889.06;;;22.99;77.18
20696;BME280;10507;52.754;13.040;2022-08-05T21:38:16;100894.56;;;22.52;79.35
20696;BME280;10507;52.754;13.040;2022-08-05T21:40:44;100876.50;;;22.51;79.20
20696;BME280;10507;52.754;13.040;2022-08-05T21:43:12;100966.09;;;22.81;78.87
20696;BME280;10507;52.754;13.040;2022-08-05T21:45:50;100842.72;;;22.53;78.36
20696;BME280;10507;52.754;13.040;2022-08-05T21:48:25;100799.59;;;22.01;79.84
20696;BME280;10507;52.754;13.040;2022-08-05T21:50:53;100901.81;;;22.04;80.76
20696;BME280;10507;52.754;13.040;2022-08-05T21:53:24;100847.59;;;21.93;80.63
20696;BME280;10507;52.754;13.040;2022-08-05T21:55:53;100728.47;;;21.30;80.72
20696;BME280;10507;52.754;13.040;2022-08-05T21:58:35;100811.09;;;21.08;83.09
20696;BME280;10507;52.754;13.040;2022-08-05T22:01:13;100916.97;;;22.07;80.26
20696;BME280;10507;52.754;13.040;2022-08-05T22:03:49;101005.72;;;22.27;80.90